createdAt,value
2023-01-01T00:02:18.415Z,15.11
2023-01-01T00:04:50.624Z,15.18
2023-01-01T00:07:20.333Z,15.27
2023-01-01T00:10:05.902Z,15.35
2023-01-01T00:12:34.579Z,15.44
2023-01-01T00:15:01.334Z,15.43
2023-01-01T00:17:30.072Z,15.54
2023-01-01T00:19:56.847Z,15.60
2023-01-01T00:25:14.211Z,15.56
2023-01-01T00:27:42.504Z,15.77
2023-01-01T00:30:10.530Z,15.82
2023-01-01T00:32:37.380Z,15.86
2023-01-01T00:35:04.480Z,15.85
2023-01-01T00:37:31.195Z,15.80
2023-01-01T00:39:57.923Z,15.91
2023-01-01T00:42:24.550Z,15.85
2023-01-01T00:44:51.178Z,15.86
2023-01-01T00:47:17.873Z,15.75
2023-01-01T00:49:44.585Z,15.65
2023-01-01T00:52:11.843Z,15.65
2023-01-01T00:54:38.582Z,15.54
2023-01-01T00:57:05.247Z,15.51
2023-01-01T00:59:32.003Z,15.34
2023-01-01T01:01:59.009Z,15.22
2023-01-01T01:04:25.764Z,15.40
2023-01-01T01:06:52.395Z,15.49
2023-01-01T01:09:19.269Z,15.50
2023-01-01T01:11:45.963Z,15.42
2023-01-01T01:14:12.713Z,15.45
2023-01-01T01:16:39.504Z,15.45
2023-01-01T01:19:06.471Z,15.44
2023-01-01T01:21:34.768Z,15.44
2023-01-01T01:24:03.657Z,15.51
2023-01-01T01:26:32.534Z,15.48
2023-01-01T01:28:59.625Z,15.47
2023-01-01T01:31:29.776Z,15.33
2023-01-01T01:33:57.692Z,15.44
2023-01-01T01:36:25.155Z,15.45
2023-01-01T01:38:52.263Z,15.34
2023-01-01T01:41:29.385Z,15.44
2023-01-01T01:44:01.269Z,15.48
2023-01-01T01:46:41.215Z,15.48
2023-01-01T01:49:16.680Z,15.46
2023-01-01T01:51:44.508Z,15.24
2023-01-01T01:54:18.016Z,15.13
2023-01-01T01:56:55.851Z,15.08
2023-01-01T01:59:25.943Z,15.15
2023-01-01T02:01:53.606Z,15.15
2023-01-01T02:04:20.568Z,15.21
2023-01-01T02:06:48.338Z,15.30
2023-01-01T02:09:15.107Z,15.31
2023-01-01T02:11:41.747Z,15.26
2023-01-01T02:14:08.805Z,15.28
2023-01-01T02:16:51.257Z,15.26
2023-01-01T02:19:23.764Z,15.22
2023-01-01T02:21:50.333Z,15.18
2023-01-01T02:24:41.773Z,15.08
2023-01-01T02:27:38.852Z,15.08
2023-01-01T02:30:09.229Z,15.13
2023-01-01T02:32:51.124Z,15.05
2023-01-01T02:35:36.486Z,15.08
2023-01-01T02:38:30.415Z,15.11
2023-01-01T02:41:01.572Z,15.06
2023-01-01T02:43:28.649Z,15.18
2023-01-01T02:45:55.882Z,15.19
2023-01-01T02:48:54.825Z,15.27
2023-01-01T02:51:59.002Z,15.19
2023-01-01T02:54:28.574Z,15.12
2023-01-01T02:57:16.210Z,15.18
2023-01-01T03:00:13.740Z,15.14
2023-01-01T03:02:52.354Z,15.12
2023-01-01T03:05:59.020Z,15.00
2023-01-01T03:08:31.523Z,15.02
2023-01-01T03:11:07.894Z,15.04
2023-01-01T03:13:50.199Z,15.11
2023-01-01T03:16:25.105Z,15.03
2023-01-01T03:19:11.102Z,14.97
2023-01-01T03:21:42.812Z,15.01
2023-01-01T03:24:31.349Z,14.84
2023-01-01T03:27:02.890Z,14.80
2023-01-01T03:29:33.744Z,14.69
2023-01-01T03:32:05.406Z,14.63
2023-01-01T03:34:37.490Z,14.64
2023-01-01T03:37:11.020Z,14.72
2023-01-01T03:39:45.139Z,14.47
2023-01-01T03:42:32.142Z,14.53
2023-01-01T03:45:05.318Z,14.57
2023-01-01T03:47:32.808Z,14.66
2023-01-01T03:50:00.748Z,14.71
2023-01-01T03:52:58.270Z,14.64
2023-01-01T03:55:35.355Z,14.61
2023-01-01T03:58:35.857Z,14.65
2023-01-01T04:01:12.055Z,14.48
2023-01-01T04:03:41.720Z,14.57
2023-01-01T04:06:11.587Z,14.51
2023-01-01T04:08:38.745Z,14.58
2023-01-01T04:11:30.403Z,14.50
2023-01-01T04:13:57.088Z,14.53
2023-01-01T04:16:24.107Z,14.68
2023-01-01T04:18:50.853Z,14.62
2023-01-01T04:21:17.612Z,14.54
2023-01-01T04:23:44.281Z,14.60
2023-01-01T04:26:14.204Z,14.63
2023-01-01T04:28:42.116Z,14.53
2023-01-01T04:31:09.830Z,14.58
2023-01-01T04:33:36.596Z,14.60
2023-01-01T04:36:12.061Z,14.64
2023-01-01T04:38:38.768Z,14.54
2023-01-01T04:41:05.836Z,14.51
2023-01-01T04:43:32.779Z,14.37
2023-01-01T04:46:02.226Z,14.42
2023-01-01T04:48:30.986Z,14.42
2023-01-01T04:51:04.044Z,14.36
2023-01-01T04:53:32.989Z,14.37
2023-01-01T04:56:13.615Z,14.44
2023-01-01T04:58:42.224Z,14.32
2023-01-01T05:01:15.332Z,14.36
2023-01-01T05:03:42.089Z,14.46
2023-01-01T05:06:11.301Z,14.48
2023-01-01T05:08:40.284Z,14.51
2023-01-01T05:11:12.541Z,14.54
2023-01-01T05:13:41.992Z,14.43
2023-01-01T05:16:11.271Z,14.50
2023-01-01T05:18:38.809Z,14.39
2023-01-01T05:21:14.889Z,14.37
2023-01-01T05:23:42.360Z,14.49
2023-01-01T05:26:14.274Z,14.42
2023-01-01T05:28:41.869Z,14.37
2023-01-01T05:31:14.247Z,14.37
2023-01-01T05:33:41.979Z,14.42
2023-01-01T05:36:14.929Z,14.39
2023-01-01T05:38:41.668Z,14.35
2023-01-01T05:41:10.715Z,14.44
2023-01-01T05:43:37.683Z,14.37
2023-01-01T05:46:07.432Z,14.31
2023-01-01T05:48:36.835Z,14.19
2023-01-01T05:51:06.005Z,14.17
2023-01-01T05:53:33.325Z,14.10
2023-01-01T05:56:00.581Z,14.09
2023-01-01T05:58:29.476Z,14.18
2023-01-01T06:00:56.585Z,14.26
2023-01-01T06:03:23.442Z,14.28
2023-01-01T06:05:50.156Z,14.22
2023-01-01T06:08:16.928Z,14.21
2023-01-01T06:10:43.685Z,14.26
2023-01-01T06:13:13.453Z,14.17
2023-01-01T06:15:40.321Z,14.24
2023-01-01T06:18:07.220Z,14.22
2023-01-01T06:20:33.884Z,14.28
2023-01-01T06:23:00.516Z,14.24
2023-01-01T06:25:27.363Z,14.24
2023-01-01T06:27:54.084Z,14.16
2023-01-01T06:30:20.712Z,14.22
2023-01-01T06:32:47.451Z,14.17
2023-01-01T06:35:14.139Z,14.06
2023-01-01T06:37:41.014Z,14.04
2023-01-01T06:40:08.537Z,13.98
2023-01-01T06:42:35.198Z,13.84
2023-01-01T06:45:01.855Z,13.80
2023-01-01T06:47:28.646Z,13.69
2023-01-01T06:49:55.552Z,13.78
2023-01-01T06:52:22.246Z,13.88
2023-01-01T06:54:49.188Z,13.76
2023-01-01T06:57:16.120Z,13.77
2023-01-01T06:59:42.827Z,13.90
2023-01-01T07:02:11.929Z,13.97
2023-01-01T07:04:39.197Z,13.95
2023-01-01T07:07:06.175Z,13.91
2023-01-01T07:09:35.146Z,13.84
2023-01-01T07:12:01.840Z,14.04
2023-01-01T07:14:28.517Z,13.86
2023-01-01T07:16:55.219Z,13.87
2023-01-01T07:19:21.855Z,13.81
2023-01-01T07:21:54.190Z,13.78
2023-01-01T07:24:22.176Z,13.93
2023-01-01T07:26:49.347Z,13.74
2023-01-01T07:29:16.228Z,13.96
2023-01-01T07:31:44.967Z,13.98
2023-01-01T07:34:15.172Z,13.93
2023-01-01T07:36:42.495Z,13.86
2023-01-01T07:39:10.326Z,13.82
2023-01-01T07:41:37.786Z,13.71
2023-01-01T07:44:12.617Z,13.20
2023-01-01T07:46:39.488Z,13.50
2023-01-01T07:49:06.955Z,13.12
2023-01-01T07:51:33.759Z,13.16
2023-01-01T07:54:06.203Z,13.03
2023-01-01T07:56:34.799Z,12.99
2023-01-01T07:59:01.497Z,12.95
2023-01-01T08:01:28.271Z,12.95
2023-01-01T08:03:55.225Z,12.92
2023-01-01T08:06:22.531Z,12.73
2023-01-01T08:08:49.451Z,12.43
2023-01-01T08:11:16.190Z,12.10
2023-01-01T08:13:42.873Z,11.62
2023-01-01T08:16:09.970Z,11.40
2023-01-01T08:18:36.962Z,11.00
2023-01-01T08:21:47.736Z,10.94
2023-01-01T08:24:58.065Z,10.90
2023-01-01T08:27:44.632Z,10.85
2023-01-01T08:30:19.323Z,10.21
2023-01-01T08:32:46.128Z,10.34
2023-01-01T08:35:24.227Z,10.60
2023-01-01T08:37:54.174Z,10.71
2023-01-01T08:40:20.855Z,10.75
2023-01-01T08:42:47.554Z,10.61
2023-01-01T08:45:14.263Z,10.55
2023-01-01T08:47:40.888Z,10.59
2023-01-01T08:50:08.321Z,10.53
2023-01-01T08:52:35.133Z,10.49
2023-01-01T08:55:01.748Z,10.56
2023-01-01T08:57:31.813Z,10.49
2023-01-01T08:59:58.602Z,10.15
2023-01-01T09:02:25.399Z,10.52
2023-01-01T09:04:52.174Z,10.48
2023-01-01T09:07:19.112Z,10.51
2023-01-01T09:09:46.145Z,10.44
2023-01-01T09:12:16.482Z,10.58
2023-01-01T09:14:46.782Z,10.58
2023-01-01T09:17:13.470Z,10.45
2023-01-01T09:19:40.155Z,10.47
2023-01-01T09:22:12.170Z,10.59
2023-01-01T09:24:43.026Z,10.39
2023-01-01T09:27:10.323Z,10.36
2023-01-01T09:29:37.415Z,9.85
2023-01-01T09:32:14.507Z,10.37
2023-01-01T09:34:50.351Z,10.30
2023-01-01T09:37:19.326Z,10.06
2023-01-01T09:39:48.098Z,10.24
2023-01-01T09:42:49.860Z,10.55
2023-01-01T09:46:15.048Z,10.51
2023-01-01T09:48:54.989Z,10.59
2023-01-01T09:51:22.848Z,10.59
2023-01-01T09:54:12.350Z,10.65
2023-01-01T09:56:41.191Z,10.63
2023-01-01T09:59:11.053Z,10.63
2023-01-01T10:01:56.850Z,10.65
2023-01-01T10:04:50.129Z,10.66
2023-01-01T10:07:52.931Z,10.69
2023-01-01T10:10:41.782Z,10.74
2023-01-01T10:13:27.233Z,10.74
2023-01-01T10:16:04.579Z,10.74
2023-01-01T10:18:34.946Z,10.71
2023-01-01T10:21:11.272Z,10.74
2023-01-01T10:23:47.286Z,10.73
2023-01-01T10:26:18.221Z,10.66
2023-01-01T10:29:01.974Z,10.67
2023-01-01T10:31:35.165Z,10.57
2023-01-01T10:34:29.061Z,10.75
2023-01-01T10:37:00.821Z,10.55
2023-01-01T10:39:28.396Z,10.67
2023-01-01T10:41:57.541Z,10.61
2023-01-01T10:44:30.950Z,10.65
2023-01-01T10:47:00.063Z,10.34
2023-01-01T10:49:26.827Z,10.64
2023-01-01T10:51:54.943Z,10.68
2023-01-01T10:54:31.585Z,10.71
2023-01-01T10:56:58.925Z,10.76
2023-01-01T10:59:51.780Z,10.69
2023-01-01T11:02:26.991Z,10.53
2023-01-01T11:05:20.724Z,10.33
2023-01-01T11:07:48.843Z,10.03
2023-01-01T11:10:33.710Z,10.34
2023-01-01T11:13:05.260Z,10.59
2023-01-01T11:15:41.311Z,10.63
2023-01-01T11:18:39.927Z,10.50
2023-01-01T11:21:08.220Z,9.87
2023-01-01T11:23:43.433Z,9.92
2023-01-01T11:26:24.674Z,10.24
2023-01-01T11:29:17.588Z,9.74
2023-01-01T11:31:50.869Z,10.09
2023-01-01T11:34:26.542Z,10.43
2023-01-01T11:37:06.349Z,9.67
2023-01-01T11:39:37.460Z,10.62
2023-01-01T11:42:05.624Z,10.25
2023-01-01T11:44:44.833Z,10.43
2023-01-01T11:47:42.028Z,10.19
2023-01-01T11:50:14.732Z,10.91
2023-01-01T11:52:44.533Z,10.83
2023-01-01T11:55:23.180Z,10.75
2023-01-01T11:58:19.369Z,10.61
2023-01-01T12:00:47.861Z,10.72
2023-01-01T12:03:32.926Z,10.55
2023-01-01T12:06:21.137Z,10.28
2023-01-01T12:09:00.144Z,10.60
2023-01-01T12:11:36.649Z,10.55
2023-01-01T12:14:09.288Z,10.81
2023-01-01T12:16:38.771Z,10.90
2023-01-01T12:19:33.092Z,10.66
2023-01-01T12:22:00.931Z,11.53
2023-01-01T12:24:37.113Z,11.85
2023-01-01T12:27:28.605Z,12.38
2023-01-01T12:30:22.357Z,11.99
2023-01-01T12:33:14.244Z,11.92
2023-01-01T12:36:02.811Z,11.73
2023-01-01T12:39:06.988Z,11.65
2023-01-01T12:41:33.681Z,11.61
2023-01-01T12:44:15.628Z,11.55
2023-01-01T12:46:51.476Z,11.52
2023-01-01T12:49:26.909Z,11.43
2023-01-01T12:51:59.473Z,11.39
2023-01-01T12:54:36.352Z,11.28
2023-01-01T12:57:12.055Z,11.40
2023-01-01T12:59:46.389Z,11.36
2023-01-01T13:02:22.459Z,11.31
2023-01-01T13:04:53.523Z,11.34
2023-01-01T13:07:30.407Z,11.33
2023-01-01T13:10:08.821Z,11.30
2023-01-01T13:12:37.994Z,11.34
2023-01-01T13:15:44.171Z,11.38
2023-01-01T13:18:14.087Z,11.59
2023-01-01T13:20:46.601Z,11.74
2023-01-01T13:23:36.173Z,11.82
2023-01-01T13:26:18.198Z,12.09
2023-01-01T13:29:00.072Z,12.13
2023-01-01T13:31:39.344Z,12.26
2023-01-01T13:34:30.813Z,12.27
2023-01-01T13:37:17.449Z,12.25
2023-01-01T13:40:00.541Z,12.25
2023-01-01T13:43:06.455Z,12.14
2023-01-01T13:49:03.648Z,12.17
2023-01-01T13:52:06.274Z,12.13
2023-01-01T13:54:49.259Z,12.04
2023-01-01T13:57:36.621Z,11.96
2023-01-01T14:00:23.176Z,11.84
2023-01-01T14:03:13.228Z,11.89
2023-01-01T14:05:58.574Z,11.86
2023-01-01T14:08:35.343Z,11.96
2023-01-01T14:11:16.739Z,11.80
2023-01-01T14:13:43.599Z,11.85
2023-01-01T14:16:13.887Z,11.98
2023-01-01T14:18:53.354Z,12.02
2023-01-01T14:21:22.897Z,11.96
2023-01-01T14:23:59.402Z,11.89
2023-01-01T14:26:28.532Z,11.96
2023-01-01T14:28:56.979Z,11.87
2023-01-01T14:31:29.194Z,11.88
2023-01-01T14:33:56.126Z,11.82
2023-01-01T14:36:27.865Z,11.80
2023-01-01T14:38:57.615Z,11.67
2023-01-01T14:41:43.943Z,11.67
2023-01-01T14:44:16.766Z,11.65
2023-01-01T14:46:52.675Z,11.10
2023-01-01T14:49:53.194Z,11.49
2023-01-01T14:52:26.721Z,10.75
2023-01-01T14:54:55.554Z,11.47
2023-01-01T14:57:33.339Z,11.00
2023-01-01T15:00:00.968Z,11.34
2023-01-01T15:02:32.761Z,11.26
2023-01-01T15:05:27.704Z,11.27
2023-01-01T15:08:01.824Z,11.26
2023-01-01T15:10:30.564Z,11.12
2023-01-01T15:12:57.812Z,11.25
2023-01-01T15:15:43.345Z,11.27
2023-01-01T15:18:42.208Z,11.33
2023-01-01T15:21:23.907Z,11.34
2023-01-01T15:23:55.554Z,11.33
2023-01-01T15:26:50.228Z,11.33
2023-01-01T15:29:23.762Z,11.31
2023-01-01T15:31:56.874Z,11.23
2023-01-01T15:34:34.495Z,10.90
2023-01-01T15:37:25.381Z,11.18
2023-01-01T15:39:56.571Z,11.11
2023-01-01T15:42:30.827Z,11.20
2023-01-01T15:45:34.027Z,11.17
2023-01-01T15:48:09.453Z,11.22
2023-01-01T15:50:43.286Z,10.71
2023-01-01T15:53:23.613Z,11.14
2023-01-01T15:55:58.714Z,11.05
2023-01-01T15:58:36.016Z,11.05
2023-01-01T16:01:06.574Z,10.82
2023-01-01T16:03:35.355Z,11.02
2023-01-01T16:06:02.313Z,11.03
2023-01-01T16:08:29.015Z,11.09
2023-01-01T16:10:55.934Z,11.23
2023-01-01T16:13:22.718Z,11.11
2023-01-01T16:16:29.065Z,11.23
2023-01-01T16:18:57.155Z,11.30
2023-01-01T16:21:33.986Z,11.16
2023-01-01T16:24:01.432Z,11.34
2023-01-01T16:26:28.477Z,11.35
2023-01-01T16:28:55.127Z,11.33
2023-01-01T16:31:28.835Z,11.50
2023-01-01T16:33:57.881Z,11.32
2023-01-01T16:36:27.526Z,11.45
2023-01-01T16:38:54.287Z,11.32
2023-01-01T16:41:21.101Z,11.36
2023-01-01T16:43:48.300Z,11.19
2023-01-01T16:46:15.671Z,11.34
2023-01-01T16:48:43.045Z,11.36
2023-01-01T16:51:43.198Z,11.28
2023-01-01T16:54:10.614Z,11.18
2023-01-01T16:56:37.798Z,11.23
2023-01-01T16:59:04.661Z,11.15
2023-01-01T17:01:31.895Z,11.19
2023-01-01T17:04:00.633Z,11.27
2023-01-01T17:06:27.827Z,11.23
2023-01-01T17:08:54.688Z,11.28
2023-01-01T17:11:22.650Z,11.44
2023-01-01T17:13:49.756Z,11.25
2023-01-01T17:16:26.047Z,11.27
2023-01-01T17:19:15.513Z,11.14
2023-01-01T17:21:44.428Z,11.34
2023-01-01T17:24:11.289Z,11.35
2023-01-01T17:26:38.523Z,11.32
2023-01-01T17:29:07.273Z,11.17
2023-01-01T17:31:34.522Z,11.19
2023-01-01T17:34:01.347Z,11.18
2023-01-01T17:36:28.216Z,11.23
2023-01-01T17:38:55.394Z,11.24
2023-01-01T17:41:22.559Z,11.34
2023-01-01T17:43:51.353Z,11.36
2023-01-01T17:46:27.911Z,11.38
2023-01-01T17:48:54.823Z,11.22
2023-01-01T17:51:21.789Z,11.45
2023-01-01T17:53:49.681Z,11.45
2023-01-01T17:56:18.673Z,11.40
2023-01-01T17:58:47.849Z,11.45
2023-01-01T18:01:23.646Z,11.38
2023-01-01T18:03:56.734Z,11.27
2023-01-01T18:06:28.723Z,10.91
2023-01-01T18:09:00.875Z,11.03
2023-01-01T18:11:29.010Z,10.97
2023-01-01T18:13:57.002Z,10.91
2023-01-01T18:16:24.792Z,10.72
2023-01-01T18:18:52.040Z,10.66
2023-01-01T18:21:24.541Z,10.59
2023-01-01T18:23:54.040Z,10.59
2023-01-01T18:26:22.659Z,10.51
2023-01-01T18:29:00.701Z,10.38
2023-01-01T18:31:29.572Z,10.39
2023-01-01T18:33:56.326Z,10.34
2023-01-01T18:36:29.145Z,10.34
2023-01-01T18:39:01.935Z,10.39
2023-01-01T18:41:56.232Z,10.38
2023-01-01T18:44:28.428Z,10.23
2023-01-01T18:46:58.185Z,10.37
2023-01-01T18:49:25.816Z,10.32
2023-01-01T18:51:58.353Z,10.30
2023-01-01T18:54:26.007Z,10.22
2023-01-01T18:57:20.206Z,10.23
2023-01-01T18:59:52.122Z,10.25
2023-01-01T19:02:40.008Z,10.28
2023-01-01T19:05:27.373Z,10.31
2023-01-01T19:08:18.724Z,10.24
2023-01-01T19:10:56.966Z,10.21
2023-01-01T19:13:26.913Z,10.15
2023-01-01T19:16:10.632Z,9.94
2023-01-01T19:18:40.602Z,10.11
2023-01-01T19:21:19.615Z,9.96
2023-01-01T19:24:08.295Z,9.75
2023-01-01T19:27:21.906Z,9.62
2023-01-01T19:33:28.617Z,9.59
2023-01-01T19:36:13.809Z,9.59
2023-01-01T19:39:07.991Z,9.48
2023-01-01T19:41:43.845Z,9.87
2023-01-01T19:44:58.315Z,9.84
2023-01-01T19:47:53.508Z,9.18
2023-01-01T19:50:29.943Z,9.70
2023-01-01T19:53:02.089Z,9.12
2023-01-01T19:55:42.544Z,9.42
2023-01-01T19:58:11.179Z,9.19
2023-01-01T20:00:38.336Z,9.38
2023-01-01T20:03:43.282Z,9.70
2023-01-01T20:05:54.842Z,9.77
2023-01-01T20:08:29.279Z,9.66
2023-01-01T20:10:56.451Z,9.44
2023-01-01T20:13:23.551Z,9.46
2023-01-01T20:15:50.368Z,9.47
2023-01-01T20:18:17.938Z,9.76
2023-01-01T20:21:03.081Z,9.63
2023-01-01T20:23:31.315Z,9.71
2023-01-01T20:25:59.131Z,9.74
2023-01-01T20:28:44.387Z,9.78
2023-01-01T20:31:11.188Z,9.70
2023-01-01T20:33:37.970Z,9.77
2023-01-01T20:36:23.342Z,9.27
2023-01-01T20:38:50.061Z,9.67
2023-01-01T20:41:25.888Z,9.69
2023-01-01T20:43:55.954Z,9.81
2023-01-01T20:46:32.986Z,9.47
2023-01-01T20:49:04.076Z,9.49
2023-01-01T20:51:35.714Z,9.01
2023-01-01T20:54:04.884Z,9.75
2023-01-01T20:56:47.785Z,9.04
2023-01-01T20:59:37.747Z,9.51
2023-01-01T21:02:21.159Z,8.95
2023-01-01T21:04:53.493Z,8.73
2023-01-01T21:07:25.773Z,9.41
2023-01-01T21:09:53.338Z,8.86
2023-01-01T21:12:25.989Z,9.20
2023-01-01T21:14:58.315Z,8.91
2023-01-01T21:17:29.674Z,9.27
2023-01-01T21:19:58.505Z,9.39
2023-01-01T21:22:27.098Z,9.09
2023-01-01T21:25:49.244Z,9.45
2023-01-01T21:27:58.627Z,9.37
2023-01-01T21:30:25.619Z,8.91
2023-01-01T21:32:55.120Z,9.30
2023-01-01T21:35:56.512Z,8.95
2023-01-01T21:38:27.491Z,9.14
2023-01-01T21:41:08.599Z,9.66
2023-01-01T21:43:35.501Z,9.65
2023-01-01T21:46:08.195Z,9.67
2023-01-01T21:48:55.547Z,9.65
2023-01-01T21:51:24.860Z,9.59
2023-01-01T21:53:52.247Z,9.57
2023-01-01T21:56:32.325Z,9.50
2023-01-01T21:59:28.582Z,9.53
2023-01-01T22:02:10.018Z,9.65
2023-01-01T22:04:40.151Z,9.59
2023-01-01T22:07:57.621Z,9.51
2023-01-01T22:10:24.511Z,9.59
2023-01-01T22:12:58.433Z,9.54
2023-01-01T22:15:45.244Z,9.62
2023-01-01T22:18:12.079Z,9.62
2023-01-01T22:20:41.087Z,8.64
2023-01-01T22:23:27.113Z,9.35
2023-01-01T22:25:54.579Z,9.10
2023-01-01T22:28:29.795Z,8.85
2023-01-01T22:30:59.811Z,9.07
2023-01-01T22:33:36.231Z,9.45
2023-01-01T22:36:03.591Z,9.29
2023-01-01T22:38:35.152Z,9.49
2023-01-01T22:41:02.484Z,9.12
2023-01-01T22:43:35.366Z,9.20
2023-01-01T22:46:29.746Z,8.92
2023-01-01T22:49:02.965Z,9.58
2023-01-01T22:51:39.332Z,9.49
2023-01-01T22:54:06.152Z,9.52
2023-01-01T22:56:33.010Z,9.51
2023-01-01T22:58:59.830Z,9.40
2023-01-01T23:01:26.870Z,9.63
2023-01-01T23:03:54.497Z,9.63
2023-01-01T23:06:27.962Z,9.50
2023-01-01T23:08:55.411Z,9.62
2023-01-01T23:11:22.756Z,9.72
2023-01-01T23:14:09.886Z,9.71
2023-01-01T23:16:37.017Z,9.67
2023-01-01T23:19:04.976Z,9.79
2023-01-01T23:21:34.491Z,9.72
2023-01-01T23:24:06.398Z,9.75
2023-01-01T23:26:33.833Z,9.75
2023-01-01T23:29:02.948Z,9.80
2023-01-01T23:31:31.402Z,9.59
2023-01-01T23:33:59.728Z,9.65
2023-01-01T23:36:28.161Z,9.02
2023-01-01T23:38:55.155Z,9.27
2023-01-01T23:41:23.252Z,9.22
2023-01-01T23:43:51.707Z,9.45
2023-01-01T23:46:19.336Z,9.11
2023-01-01T23:48:47.905Z,9.31
2023-01-01T23:51:16.787Z,9.76
2023-01-01T23:53:43.514Z,9.60
2023-01-01T23:56:10.396Z,9.74
2023-01-01T23:58:45.911Z,9.87
